sensor_id;sensor_type;location;lat;lon;timestamp;P1;durP1;ratioP1;P2;durP2;ratioP2
62693;SDS011;48759;52.544;13.418;2022-11-15T00:00:03;53.33;;;30.10;;
62693;SDS011;48759;52.544;13.418;2022-11-15T00:02:31;59.63;;;31.37;;
62693;SDS011;48759;52.544;13.418;2022-11-15T00:04:58;55.60;;;31.10;;
62693;SDS011;48759;52.544;13.418;2022-11-15T00:07:26;58.23;;;33.33;;
62693;SDS011;48759;52.544;13.418;2022-11-15T00:09:52;62.20;;;34.77;;
62693;SDS011;48759;52.544;13.418;2022-11-15T00:12:19;61.20;;;32.20;;
62693;SDS011;48759;52.544;13.418;2022-11-15T00:14:46;62.83;;;34.17;;
62693;SDS011;48759;52.544;13.418;2022-11-15T00:17:12;62.33;;;34.10;;
62693;SDS011;48759;52.544;13.418;2022-11-15T00:19:39;65.60;;;33.77;;
62693;SDS011;48759;52.544;13.418;2022-11-15T00:22:06;58.43;;;32.70;;
62693;SDS011;48759;52.544;13.418;2022-11-15T00:24:33;58.43;;;31.90;;
62693;SDS011;48759;52.544;13.418;2022-11-15T00:27:01;55.50;;;32.73;;
62693;SDS011;48759;52.544;13.418;2022-11-15T00:29:28;63.20;;;33.80;;
62693;SDS011;48759;52.544;13.418;2022-11-15T00:31:55;58.40;;;33.23;;
62693;SDS011;48759;52.544;13.418;2022-11-15T00:34:21;54.20;;;31.47;;
62693;SDS011;48759;52.544;13.418;2022-11-15T00:36:48;58.97;;;31.90;;
62693;SDS011;48759;52.544;13.418;2022-11-15T00:39:15;59.47;;;33.93;;
62693;SDS011;48759;52.544;13.418;2022-11-15T00:41:43;59.33;;;32.20;;
62693;SDS011;48759;52.544;13.418;2022-11-15T00:44:09;58.23;;;33.87;;
62693;SDS011;48759;52.544;13.418;2022-11-15T00:46:36;57.10;;;31.57;;
62693;SDS011;48759;52.544;13.418;2022-11-15T00:49:04;60.83;;;32.00;;
62693;SDS011;48759;52.544;13.418;2022-11-15T00:51:30;59.17;;;31.70;;
62693;SDS011;48759;52.544;13.418;2022-11-15T00:53:57;60.23;;;32.73;;
62693;SDS011;48759;52.544;13.418;2022-11-15T00:56:24;58.13;;;32.23;;
62693;SDS011;48759;52.544;13.418;2022-11-15T00:58:52;64.67;;;32.50;;
62693;SDS011;48759;52.544;13.418;2022-11-15T01:01:19;58.63;;;30.57;;
62693;SDS011;48759;52.544;13.418;2022-11-15T01:03:46;57.60;;;31.37;;
62693;SDS011;48759;52.544;13.418;2022-11-15T01:06:12;65.00;;;34.17;;
62693;SDS011;48759;52.544;13.418;2022-11-15T01:08:39;58.67;;;33.23;;
62693;SDS011;48759;52.544;13.418;2022-11-15T01:11:07;69.37;;;35.73;;
62693;SDS011;48759;52.544;13.418;2022-11-15T01:13:36;60.10;;;34.23;;
62693;SDS011;48759;52.544;13.418;2022-11-15T01:16:09;53.43;;;30.80;;
62693;SDS011;48759;52.544;13.418;2022-11-15T01:18:38;59.30;;;32.67;;
62693;SDS011;48759;52.544;13.418;2022-11-15T01:21:06;60.60;;;32.20;;
62693;SDS011;48759;52.544;13.418;2022-11-15T01:23:34;62.13;;;32.93;;
62693;SDS011;48759;52.544;13.418;2022-11-15T01:26:01;58.73;;;32.23;;
62693;SDS011;48759;52.544;13.418;2022-11-15T01:28:30;65.70;;;34.27;;
62693;SDS011;48759;52.544;13.418;2022-11-15T01:30:58;58.40;;;31.70;;
62693;SDS011;48759;52.544;13.418;2022-11-15T01:33:26;57.83;;;32.00;;
62693;SDS011;48759;52.544;13.418;2022-11-15T01:35:54;61.63;;;33.70;;
62693;SDS011;48759;52.544;13.418;2022-11-15T01:38:21;59.40;;;33.53;;
62693;SDS011;48759;52.544;13.418;2022-11-15T01:40:48;67.47;;;32.87;;
62693;SDS011;48759;52.544;13.418;2022-11-15T01:43:18;65.60;;;32.67;;
62693;SDS011;48759;52.544;13.418;2022-11-15T01:45:46;58.27;;;30.50;;
62693;SDS011;48759;52.544;13.418;2022-11-15T01:48:19;56.87;;;31.97;;
62693;SDS011;48759;52.544;13.418;2022-11-15T01:50:48;57.47;;;31.97;;
62693;SDS011;48759;52.544;13.418;2022-11-15T01:53:16;59.27;;;32.00;;
62693;SDS011;48759;52.544;13.418;2022-11-15T01:55:45;66.47;;;33.27;;
62693;SDS011;48759;52.544;13.418;2022-11-15T01:58:12;60.87;;;33.77;;
62693;SDS011;48759;52.544;13.418;2022-11-15T02:00:39;58.60;;;32.77;;
62693;SDS011;48759;52.544;13.418;2022-11-15T02:03:06;56.40;;;32.30;;
62693;SDS011;48759;52.544;13.418;2022-11-15T02:05:33;57.70;;;31.07;;
62693;SDS011;48759;52.544;13.418;2022-11-15T02:08:02;58.37;;;32.07;;
62693;SDS011;48759;52.544;13.418;2022-11-15T02:10:30;57.60;;;32.20;;
62693;SDS011;48759;52.544;13.418;2022-11-15T02:12:56;62.17;;;30.70;;
62693;SDS011;48759;52.544;13.418;2022-11-15T02:15:27;65.77;;;33.80;;
62693;SDS011;48759;52.544;13.418;2022-11-15T02:18:05;66.70;;;33.70;;
62693;SDS011;48759;52.544;13.418;2022-11-15T02:20:46;60.80;;;32.93;;
62693;SDS011;48759;52.544;13.418;2022-11-15T02:23:36;57.53;;;32.47;;
62693;SDS011;48759;52.544;13.418;2022-11-15T02:26:30;67.47;;;32.27;;
62693;SDS011;48759;52.544;13.418;2022-11-15T02:29:19;61.40;;;31.50;;
62693;SDS011;48759;52.544;13.418;2022-11-15T02:31:58;56.67;;;32.47;;
62693;SDS011;48759;52.544;13.418;2022-11-15T02:34:32;61.70;;;31.80;;
62693;SDS011;48759;52.544;13.418;2022-11-15T02:37:07;58.10;;;30.80;;
62693;SDS011;48759;52.544;13.418;2022-11-15T02:39:41;57.53;;;31.10;;
62693;SDS011;48759;52.544;13.418;2022-11-15T02:42:14;56.90;;;31.17;;
62693;SDS011;48759;52.544;13.418;2022-11-15T02:45:13;53.97;;;30.20;;
62693;SDS011;48759;52.544;13.418;2022-11-15T02:47:46;65.23;;;33.23;;
62693;SDS011;48759;52.544;13.418;2022-11-15T02:50:17;63.90;;;33.57;;
62693;SDS011;48759;52.544;13.418;2022-11-15T02:52:46;57.83;;;30.60;;
62693;SDS011;48759;52.544;13.418;2022-11-15T02:55:28;57.47;;;32.67;;
62693;SDS011;48759;52.544;13.418;2022-11-15T02:57:59;59.20;;;30.70;;
62693;SDS011;48759;52.544;13.418;2022-11-15T03:00:38;63.07;;;33.77;;
62693;SDS011;48759;52.544;13.418;2022-11-15T03:03:18;60.40;;;32.57;;
62693;SDS011;48759;52.544;13.418;2022-11-15T03:05:56;58.93;;;32.77;;
62693;SDS011;48759;52.544;13.418;2022-11-15T03:08:31;51.03;;;31.80;;
62693;SDS011;48759;52.544;13.418;2022-11-15T03:11:03;56.90;;;31.10;;
62693;SDS011;48759;52.544;13.418;2022-11-15T03:13:36;58.47;;;32.50;;
62693;SDS011;48759;52.544;13.418;2022-11-15T03:16:11;63.93;;;31.63;;
62693;SDS011;48759;52.544;13.418;2022-11-15T03:18:47;58.03;;;31.30;;
62693;SDS011;48759;52.544;13.418;2022-11-15T03:21:19;61.83;;;31.73;;
62693;SDS011;48759;52.544;13.418;2022-11-15T03:23:48;58.67;;;31.10;;
62693;SDS011;48759;52.544;13.418;2022-11-15T03:26:18;55.20;;;30.63;;
62693;SDS011;48759;52.544;13.418;2022-11-15T03:28:50;56.97;;;31.47;;
62693;SDS011;48759;52.544;13.418;2022-11-15T03:31:19;59.20;;;31.03;;
62693;SDS011;48759;52.544;13.418;2022-11-15T03:34:08;52.47;;;31.77;;
62693;SDS011;48759;52.544;13.418;2022-11-15T03:36:40;54.20;;;30.07;;
62693;SDS011;48759;52.544;13.418;2022-11-15T03:39:08;56.80;;;33.07;;
62693;SDS011;48759;52.544;13.418;2022-11-15T03:41:35;54.40;;;30.23;;
62693;SDS011;48759;52.544;13.418;2022-11-15T03:44:08;58.17;;;33.13;;
62693;SDS011;48759;52.544;13.418;2022-11-15T03:46:41;56.03;;;30.33;;
62693;SDS011;48759;52.544;13.418;2022-11-15T03:49:15;60.73;;;32.03;;
62693;SDS011;48759;52.544;13.418;2022-11-15T03:51:46;53.70;;;31.80;;
62693;SDS011;48759;52.544;13.418;2022-11-15T03:54:13;59.20;;;32.13;;
62693;SDS011;48759;52.544;13.418;2022-11-15T03:56:40;56.60;;;30.00;;
62693;SDS011;48759;52.544;13.418;2022-11-15T03:59:06;54.30;;;29.47;;
62693;SDS011;48759;52.544;13.418;2022-11-15T04:01:34;57.97;;;31.93;;
62693;SDS011;48759;52.544;13.418;2022-11-15T04:04:00;64.90;;;33.37;;
62693;SDS011;48759;52.544;13.418;2022-11-15T04:06:29;55.13;;;30.90;;
62693;SDS011;48759;52.544;13.418;2022-11-15T04:08:55;56.37;;;29.57;;
62693;SDS011;48759;52.544;13.418;2022-11-15T04:11:22;62.17;;;33.10;;
62693;SDS011;48759;52.544;13.418;2022-11-15T04:13:48;57.07;;;30.00;;
62693;SDS011;48759;52.544;13.418;2022-11-15T04:16:15;56.10;;;29.37;;
62693;SDS011;48759;52.544;13.418;2022-11-15T04:18:41;56.40;;;31.33;;
62693;SDS011;48759;52.544;13.418;2022-11-15T04:21:08;57.77;;;30.07;;
62693;SDS011;48759;52.544;13.418;2022-11-15T04:23:54;50.77;;;27.90;;
62693;SDS011;48759;52.544;13.418;2022-11-15T04:26:38;55.30;;;30.33;;
62693;SDS011;48759;52.544;13.418;2022-11-15T04:29:05;54.07;;;30.40;;
62693;SDS011;48759;52.544;13.418;2022-11-15T04:31:49;52.43;;;28.83;;
62693;SDS011;48759;52.544;13.418;2022-11-15T04:34:16;53.50;;;28.27;;
62693;SDS011;48759;52.544;13.418;2022-11-15T04:36:42;55.20;;;29.27;;
62693;SDS011;48759;52.544;13.418;2022-11-15T04:39:28;55.33;;;29.50;;
62693;SDS011;48759;52.544;13.418;2022-11-15T04:41:55;59.07;;;32.50;;
62693;SDS011;48759;52.544;13.418;2022-11-15T04:44:21;61.03;;;30.30;;
62693;SDS011;48759;52.544;13.418;2022-11-15T04:46:48;50.10;;;28.87;;
62693;SDS011;48759;52.544;13.418;2022-11-15T04:49:15;51.57;;;29.33;;
62693;SDS011;48759;52.544;13.418;2022-11-15T04:51:41;53.47;;;29.30;;
62693;SDS011;48759;52.544;13.418;2022-11-15T04:54:08;60.03;;;32.13;;
62693;SDS011;48759;52.544;13.418;2022-11-15T04:56:36;58.70;;;34.60;;
62693;SDS011;48759;52.544;13.418;2022-11-15T04:59:03;57.90;;;31.60;;
62693;SDS011;48759;52.544;13.418;2022-11-15T05:01:30;50.30;;;30.03;;
62693;SDS011;48759;52.544;13.418;2022-11-15T05:03:57;56.60;;;31.20;;
62693;SDS011;48759;52.544;13.418;2022-11-15T05:06:41;51.80;;;27.87;;
62693;SDS011;48759;52.544;13.418;2022-11-15T05:09:08;54.30;;;29.33;;
62693;SDS011;48759;52.544;13.418;2022-11-15T05:11:36;50.97;;;28.37;;
62693;SDS011;48759;52.544;13.418;2022-11-15T05:14:03;47.77;;;28.00;;
62693;SDS011;48759;52.544;13.418;2022-11-15T05:16:29;51.43;;;29.60;;
62693;SDS011;48759;52.544;13.418;2022-11-15T05:18:56;51.13;;;28.07;;
62693;SDS011;48759;52.544;13.418;2022-11-15T05:21:23;48.50;;;28.93;;
62693;SDS011;48759;52.544;13.418;2022-11-15T05:23:50;47.47;;;27.43;;
62693;SDS011;48759;52.544;13.418;2022-11-15T05:26:17;51.57;;;28.30;;
62693;SDS011;48759;52.544;13.418;2022-11-15T05:28:45;50.30;;;29.43;;
62693;SDS011;48759;52.544;13.418;2022-11-15T05:31:13;56.77;;;29.60;;
62693;SDS011;48759;52.544;13.418;2022-11-15T05:33:42;59.67;;;31.60;;
62693;SDS011;48759;52.544;13.418;2022-11-15T05:36:12;55.67;;;31.20;;
62693;SDS011;48759;52.544;13.418;2022-11-15T05:38:44;52.73;;;29.07;;
62693;SDS011;48759;52.544;13.418;2022-11-15T05:41:14;49.90;;;30.03;;
62693;SDS011;48759;52.544;13.418;2022-11-15T05:43:43;53.83;;;29.40;;
62693;SDS011;48759;52.544;13.418;2022-11-15T05:46:18;52.97;;;29.17;;
62693;SDS011;48759;52.544;13.418;2022-11-15T05:48:46;51.60;;;28.60;;
62693;SDS011;48759;52.544;13.418;2022-11-15T05:51:15;46.00;;;27.80;;
62693;SDS011;48759;52.544;13.418;2022-11-15T05:53:43;56.87;;;30.20;;
62693;SDS011;48759;52.544;13.418;2022-11-15T05:56:14;50.13;;;28.63;;
62693;SDS011;48759;52.544;13.418;2022-11-15T05:58:41;50.00;;;29.37;;
62693;SDS011;48759;52.544;13.418;2022-11-15T06:01:15;52.43;;;30.97;;
62693;SDS011;48759;52.544;13.418;2022-11-15T06:03:43;52.97;;;31.27;;
62693;SDS011;48759;52.544;13.418;2022-11-15T06:06:10;51.10;;;31.00;;
62693;SDS011;48759;52.544;13.418;2022-11-15T06:08:36;47.43;;;27.93;;
62693;SDS011;48759;52.544;13.418;2022-11-15T06:11:03;54.50;;;28.87;;
62693;SDS011;48759;52.544;13.418;2022-11-15T06:13:31;53.90;;;30.80;;
62693;SDS011;48759;52.544;13.418;2022-11-15T06:15:58;50.80;;;30.60;;
62693;SDS011;48759;52.544;13.418;2022-11-15T06:18:24;58.10;;;32.60;;
62693;SDS011;48759;52.544;13.418;2022-11-15T06:20:52;50.07;;;31.23;;
62693;SDS011;48759;52.544;13.418;2022-11-15T06:23:19;52.83;;;30.30;;
62693;SDS011;48759;52.544;13.418;2022-11-15T06:25:46;49.37;;;28.23;;
62693;SDS011;48759;52.544;13.418;2022-11-15T06:28:12;51.70;;;31.43;;
62693;SDS011;48759;52.544;13.418;2022-11-15T06:30:39;51.10;;;31.30;;
62693;SDS011;48759;52.544;13.418;2022-11-15T06:33:06;54.80;;;29.57;;
62693;SDS011;48759;52.544;13.418;2022-11-15T06:35:34;56.50;;;31.50;;
62693;SDS011;48759;52.544;13.418;2022-11-15T06:38:03;57.00;;;31.03;;
62693;SDS011;48759;52.544;13.418;2022-11-15T06:40:32;54.53;;;29.50;;
62693;SDS011;48759;52.544;13.418;2022-11-15T06:42:59;58.13;;;32.03;;
62693;SDS011;48759;52.544;13.418;2022-11-15T06:45:26;60.47;;;33.67;;
62693;SDS011;48759;52.544;13.418;2022-11-15T06:47:53;55.17;;;31.17;;
62693;SDS011;48759;52.544;13.418;2022-11-15T06:50:20;55.83;;;30.20;;
62693;SDS011;48759;52.544;13.418;2022-11-15T06:52:47;57.93;;;29.50;;
62693;SDS011;48759;52.544;13.418;2022-11-15T06:55:15;59.73;;;32.47;;
62693;SDS011;48759;52.544;13.418;2022-11-15T06:57:46;58.60;;;30.33;;
62693;SDS011;48759;52.544;13.418;2022-11-15T07:00:14;54.83;;;31.80;;
62693;SDS011;48759;52.544;13.418;2022-11-15T07:02:41;50.47;;;28.97;;
62693;SDS011;48759;52.544;13.418;2022-11-15T07:05:08;52.77;;;30.43;;
62693;SDS011;48759;52.544;13.418;2022-11-15T07:07:35;50.87;;;29.67;;
62693;SDS011;48759;52.544;13.418;2022-11-15T07:10:01;51.40;;;29.13;;
62693;SDS011;48759;52.544;13.418;2022-11-15T07:12:30;54.17;;;29.93;;
62693;SDS011;48759;52.544;13.418;2022-11-15T07:14:56;53.93;;;31.30;;
62693;SDS011;48759;52.544;13.418;2022-11-15T07:17:23;48.80;;;29.27;;
62693;SDS011;48759;52.544;13.418;2022-11-15T07:19:50;59.77;;;30.60;;
62693;SDS011;48759;52.544;13.418;2022-11-15T07:22:16;48.87;;;28.40;;
62693;SDS011;48759;52.544;13.418;2022-11-15T07:24:43;54.07;;;28.87;;
62693;SDS011;48759;52.544;13.418;2022-11-15T07:27:09;52.17;;;29.20;;
62693;SDS011;48759;52.544;13.418;2022-11-15T07:29:37;52.00;;;28.50;;
62693;SDS011;48759;52.544;13.418;2022-11-15T07:32:04;47.20;;;27.00;;
62693;SDS011;48759;52.544;13.418;2022-11-15T07:34:31;45.13;;;28.63;;
62693;SDS011;48759;52.544;13.418;2022-11-15T07:36:57;46.67;;;28.20;;
62693;SDS011;48759;52.544;13.418;2022-11-15T07:39:24;47.53;;;28.47;;
62693;SDS011;48759;52.544;13.418;2022-11-15T07:41:50;46.20;;;29.63;;
62693;SDS011;48759;52.544;13.418;2022-11-15T07:44:39;48.07;;;27.27;;
62693;SDS011;48759;52.544;13.418;2022-11-15T07:47:11;45.37;;;27.43;;
62693;SDS011;48759;52.544;13.418;2022-11-15T07:49:38;48.13;;;28.00;;
62693;SDS011;48759;52.544;13.418;2022-11-15T07:52:05;43.70;;;27.57;;
62693;SDS011;48759;52.544;13.418;2022-11-15T07:54:32;62.47;;;27.70;;
62693;SDS011;48759;52.544;13.418;2022-11-15T07:56:59;48.63;;;28.17;;
62693;SDS011;48759;52.544;13.418;2022-11-15T07:59:26;44.47;;;27.00;;
62693;SDS011;48759;52.544;13.418;2022-11-15T08:02:12;51.50;;;27.57;;
62693;SDS011;48759;52.544;13.418;2022-11-15T08:04:42;48.90;;;28.30;;
62693;SDS011;48759;52.544;13.418;2022-11-15T08:07:10;46.93;;;28.07;;
62693;SDS011;48759;52.544;13.418;2022-11-15T08:09:36;50.47;;;27.80;;
62693;SDS011;48759;52.544;13.418;2022-11-15T08:12:03;45.53;;;27.77;;
62693;SDS011;48759;52.544;13.418;2022-11-15T08:14:30;49.80;;;28.50;;
62693;SDS011;48759;52.544;13.418;2022-11-15T08:16:57;44.83;;;27.17;;
62693;SDS011;48759;52.544;13.418;2022-11-15T08:19:25;46.10;;;26.63;;
62693;SDS011;48759;52.544;13.418;2022-11-15T08:21:55;47.37;;;28.40;;
62693;SDS011;48759;52.544;13.418;2022-11-15T08:24:22;45.80;;;27.43;;
62693;SDS011;48759;52.544;13.418;2022-11-15T08:26:49;43.93;;;26.83;;
62693;SDS011;48759;52.544;13.418;2022-11-15T08:29:15;39.30;;;25.40;;
62693;SDS011;48759;52.544;13.418;2022-11-15T08:31:42;48.00;;;26.30;;
62693;SDS011;48759;52.544;13.418;2022-11-15T08:34:09;43.33;;;27.03;;
62693;SDS011;48759;52.544;13.418;2022-11-15T08:36:37;44.20;;;26.30;;
62693;SDS011;48759;52.544;13.418;2022-11-15T08:39:09;38.97;;;26.90;;
62693;SDS011;48759;52.544;13.418;2022-11-15T08:41:37;40.63;;;25.63;;
62693;SDS011;48759;52.544;13.418;2022-11-15T08:44:04;40.87;;;25.30;;
62693;SDS011;48759;52.544;13.418;2022-11-15T08:46:31;47.50;;;25.00;;
62693;SDS011;48759;52.544;13.418;2022-11-15T08:48:57;45.50;;;25.83;;
62693;SDS011;48759;52.544;13.418;2022-11-15T08:51:24;42.93;;;26.63;;
62693;SDS011;48759;52.544;13.418;2022-11-15T08:53:52;42.90;;;23.57;;
62693;SDS011;48759;52.544;13.418;2022-11-15T08:56:19;40.63;;;24.50;;
62693;SDS011;48759;52.544;13.418;2022-11-15T08:58:46;40.67;;;24.00;;
62693;SDS011;48759;52.544;13.418;2022-11-15T09:01:16;34.20;;;22.87;;
62693;SDS011;48759;52.544;13.418;2022-11-15T09:03:45;41.20;;;23.60;;
62693;SDS011;48759;52.544;13.418;2022-11-15T09:06:11;37.90;;;23.40;;
62693;SDS011;48759;52.544;13.418;2022-11-15T09:08:39;35.30;;;22.77;;
62693;SDS011;48759;52.544;13.418;2022-11-15T09:11:13;35.63;;;24.43;;
62693;SDS011;48759;52.544;13.418;2022-11-15T09:13:41;38.03;;;23.77;;
62693;SDS011;48759;52.544;13.418;2022-11-15T09:16:08;39.43;;;24.93;;
62693;SDS011;48759;52.544;13.418;2022-11-15T09:18:36;39.40;;;25.43;;
62693;SDS011;48759;52.544;13.418;2022-11-15T09:21:03;35.00;;;23.57;;
62693;SDS011;48759;52.544;13.418;2022-11-15T09:23:30;40.73;;;24.00;;
62693;SDS011;48759;52.544;13.418;2022-11-15T09:26:00;35.70;;;23.20;;
62693;SDS011;48759;52.544;13.418;2022-11-15T09:28:29;39.43;;;25.63;;
62693;SDS011;48759;52.544;13.418;2022-11-15T09:30:57;44.77;;;24.70;;
62693;SDS011;48759;52.544;13.418;2022-11-15T09:33:25;35.57;;;22.93;;
62693;SDS011;48759;52.544;13.418;2022-11-15T09:35:52;39.30;;;24.10;;
62693;SDS011;48759;52.544;13.418;2022-11-15T09:38:19;37.43;;;23.97;;
62693;SDS011;48759;52.544;13.418;2022-11-15T09:40:46;41.43;;;24.53;;
62693;SDS011;48759;52.544;13.418;2022-11-15T09:43:24;36.13;;;23.20;;
62693;SDS011;48759;52.544;13.418;2022-11-15T09:45:59;34.63;;;22.30;;
62693;SDS011;48759;52.544;13.418;2022-11-15T09:48:38;36.70;;;24.03;;
62693;SDS011;48759;52.544;13.418;2022-11-15T09:51:15;40.83;;;24.87;;
62693;SDS011;48759;52.544;13.418;2022-11-15T09:53:54;35.13;;;23.90;;
62693;SDS011;48759;52.544;13.418;2022-11-15T09:56:27;32.60;;;22.37;;
62693;SDS011;48759;52.544;13.418;2022-11-15T09:58:59;37.70;;;24.17;;
62693;SDS011;48759;52.544;13.418;2022-11-15T10:01:41;31.77;;;21.53;;
62693;SDS011;48759;52.544;13.418;2022-11-15T10:04:14;34.70;;;20.07;;
62693;SDS011;48759;52.544;13.418;2022-11-15T10:06:42;32.70;;;20.57;;
62693;SDS011;48759;52.544;13.418;2022-11-15T10:09:14;32.00;;;20.37;;
62693;SDS011;48759;52.544;13.418;2022-11-15T10:11:45;29.70;;;19.97;;
62693;SDS011;48759;52.544;13.418;2022-11-15T10:14:13;32.73;;;19.83;;
62693;SDS011;48759;52.544;13.418;2022-11-15T10:19:47;29.20;;;19.80;;
62693;SDS011;48759;52.544;13.418;2022-11-15T10:22:24;26.97;;;18.23;;
62693;SDS011;48759;52.544;13.418;2022-11-15T10:24:59;29.40;;;17.93;;
62693;SDS011;48759;52.544;13.418;2022-11-15T10:27:37;30.07;;;18.97;;
62693;SDS011;48759;52.544;13.418;2022-11-15T10:30:06;26.90;;;19.70;;
62693;SDS011;48759;52.544;13.418;2022-11-15T10:32:39;27.90;;;19.20;;
62693;SDS011;48759;52.544;13.418;2022-11-15T10:35:15;30.10;;;18.87;;
62693;SDS011;48759;52.544;13.418;2022-11-15T10:37:44;26.43;;;18.73;;
62693;SDS011;48759;52.544;13.418;2022-11-15T10:40:14;26.83;;;19.03;;
62693;SDS011;48759;52.544;13.418;2022-11-15T10:42:42;34.30;;;20.00;;
62693;SDS011;48759;52.544;13.418;2022-11-15T10:45:22;30.33;;;19.03;;
62693;SDS011;48759;52.544;13.418;2022-11-15T10:47:52;31.83;;;17.80;;
62693;SDS011;48759;52.544;13.418;2022-11-15T10:50:26;30.47;;;19.00;;
62693;SDS011;48759;52.544;13.418;2022-11-15T10:52:54;31.00;;;19.60;;
62693;SDS011;48759;52.544;13.418;2022-11-15T10:55:25;32.13;;;19.73;;
62693;SDS011;48759;52.544;13.418;2022-11-15T10:57:54;25.57;;;17.57;;
62693;SDS011;48759;52.544;13.418;2022-11-15T11:00:32;32.53;;;20.50;;
62693;SDS011;48759;52.544;13.418;2022-11-15T11:03:03;45.80;;;20.70;;
62693;SDS011;48759;52.544;13.418;2022-11-15T11:05:32;29.90;;;21.03;;
62693;SDS011;48759;52.544;13.418;2022-11-15T11:08:02;30.57;;;20.13;;
62693;SDS011;48759;52.544;13.418;2022-11-15T11:10:30;28.73;;;19.50;;
62693;SDS011;48759;52.544;13.418;2022-11-15T11:13:11;33.13;;;21.90;;
62693;SDS011;48759;52.544;13.418;2022-11-15T11:15:39;37.97;;;21.43;;
62693;SDS011;48759;52.544;13.418;2022-11-15T11:18:10;32.50;;;20.80;;
62693;SDS011;48759;52.544;13.418;2022-11-15T11:20:46;32.30;;;20.27;;
62693;SDS011;48759;52.544;13.418;2022-11-15T11:23:26;30.77;;;20.10;;
62693;SDS011;48759;52.544;13.418;2022-11-15T11:26:08;25.20;;;18.87;;
62693;SDS011;48759;52.544;13.418;2022-11-15T11:28:46;32.70;;;20.80;;
62693;SDS011;48759;52.544;13.418;2022-11-15T11:31:31;31.53;;;20.47;;
62693;SDS011;48759;52.544;13.418;2022-11-15T11:34:12;32.27;;;19.63;;
62693;SDS011;48759;52.544;13.418;2022-11-15T11:36:45;30.53;;;19.43;;
62693;SDS011;48759;52.544;13.418;2022-11-15T11:39:20;33.60;;;20.27;;
62693;SDS011;48759;52.544;13.418;2022-11-15T11:41:59;29.57;;;19.27;;
62693;SDS011;48759;52.544;13.418;2022-11-15T11:44:33;25.10;;;18.23;;
62693;SDS011;48759;52.544;13.418;2022-11-15T11:47:09;26.57;;;19.53;;
62693;SDS011;48759;52.544;13.418;2022-11-15T11:49:41;31.03;;;20.53;;
62693;SDS011;48759;52.544;13.418;2022-11-15T11:52:13;29.40;;;19.53;;
62693;SDS011;48759;52.544;13.418;2022-11-15T11:54:46;27.10;;;20.27;;
62693;SDS011;48759;52.544;13.418;2022-11-15T11:57:22;32.23;;;18.77;;
62693;SDS011;48759;52.544;13.418;2022-11-15T11:59:56;34.33;;;20.13;;
62693;SDS011;48759;52.544;13.418;2022-11-15T12:02:28;27.23;;;19.20;;
62693;SDS011;48759;52.544;13.418;2022-11-15T12:05:01;31.23;;;19.43;;
62693;SDS011;48759;52.544;13.418;2022-11-15T12:07:34;24.90;;;17.17;;
62693;SDS011;48759;52.544;13.418;2022-11-15T12:10:11;33.83;;;19.30;;
62693;SDS011;48759;52.544;13.418;2022-11-15T12:12:47;22.63;;;16.37;;
62693;SDS011;48759;52.544;13.418;2022-11-15T12:15:21;27.20;;;17.63;;
62693;SDS011;48759;52.544;13.418;2022-11-15T12:17:50;26.37;;;17.97;;
62693;SDS011;48759;52.544;13.418;2022-11-15T12:20:19;25.10;;;18.57;;
62693;SDS011;48759;52.544;13.418;2022-11-15T12:22:51;24.70;;;18.00;;
62693;SDS011;48759;52.544;13.418;2022-11-15T12:25:22;29.60;;;18.53;;
62693;SDS011;48759;52.544;13.418;2022-11-15T12:27:53;27.57;;;19.37;;
62693;SDS011;48759;52.544;13.418;2022-11-15T12:30:23;30.80;;;18.73;;
62693;SDS011;48759;52.544;13.418;2022-11-15T12:32:55;27.20;;;17.70;;
62693;SDS011;48759;52.544;13.418;2022-11-15T12:35:26;28.00;;;18.47;;
62693;SDS011;48759;52.544;13.418;2022-11-15T12:38:02;30.63;;;18.40;;
62693;SDS011;48759;52.544;13.418;2022-11-15T12:40:30;28.70;;;18.00;;
62693;SDS011;48759;52.544;13.418;2022-11-15T12:43:03;25.73;;;18.33;;
62693;SDS011;48759;52.544;13.418;2022-11-15T12:45:51;23.60;;;17.00;;
62693;SDS011;48759;52.544;13.418;2022-11-15T12:57:49;24.83;;;17.90;;
62693;SDS011;48759;52.544;13.418;2022-11-15T13:03:20;33.63;;;22.70;;
62693;SDS011;48759;52.544;13.418;2022-11-15T13:08:57;29.40;;;17.80;;
62693;SDS011;48759;52.544;13.418;2022-11-15T13:17:26;26.60;;;17.40;;
62693;SDS011;48759;52.544;13.418;2022-11-15T13:20:00;26.20;;;17.00;;
62693;SDS011;48759;52.544;13.418;2022-11-15T13:22:43;27.27;;;16.83;;
62693;SDS011;48759;52.544;13.418;2022-11-15T13:28:23;24.70;;;16.87;;
62693;SDS011;48759;52.544;13.418;2022-11-15T13:30:54;22.80;;;15.50;;
62693;SDS011;48759;52.544;13.418;2022-11-15T13:33:24;24.43;;;15.13;;
62693;SDS011;48759;52.544;13.418;2022-11-15T13:35:54;19.90;;;15.33;;
62693;SDS011;48759;52.544;13.418;2022-11-15T13:38:27;25.57;;;16.10;;
62693;SDS011;48759;52.544;13.418;2022-11-15T13:40:55;29.87;;;16.20;;
62693;SDS011;48759;52.544;13.418;2022-11-15T13:43:31;26.30;;;15.87;;
62693;SDS011;48759;52.544;13.418;2022-11-15T13:46:04;23.57;;;15.37;;
62693;SDS011;48759;52.544;13.418;2022-11-15T13:48:32;23.40;;;15.10;;
62693;SDS011;48759;52.544;13.418;2022-11-15T13:50:59;24.33;;;16.90;;
62693;SDS011;48759;52.544;13.418;2022-11-15T13:53:28;24.07;;;15.97;;
62693;SDS011;48759;52.544;13.418;2022-11-15T13:55:58;24.63;;;16.03;;
62693;SDS011;48759;52.544;13.418;2022-11-15T13:58:28;26.77;;;15.53;;
62693;SDS011;48759;52.544;13.418;2022-11-15T14:00:59;26.67;;;15.83;;
62693;SDS011;48759;52.544;13.418;2022-11-15T14:03:27;26.10;;;15.70;;
62693;SDS011;48759;52.544;13.418;2022-11-15T14:06:02;32.63;;;15.50;;
62693;SDS011;48759;52.544;13.418;2022-11-15T14:08:31;23.43;;;15.00;;
62693;SDS011;48759;52.544;13.418;2022-11-15T14:11:09;19.30;;;14.30;;
62693;SDS011;48759;52.544;13.418;2022-11-15T14:13:41;25.93;;;16.50;;
62693;SDS011;48759;52.544;13.418;2022-11-15T14:16:32;23.67;;;15.73;;
62693;SDS011;48759;52.544;13.418;2022-11-15T14:19:00;18.90;;;14.57;;
62693;SDS011;48759;52.544;13.418;2022-11-15T14:21:27;19.33;;;14.30;;
62693;SDS011;48759;52.544;13.418;2022-11-15T14:26:41;37.83;;;16.30;;
62693;SDS011;48759;52.544;13.418;2022-11-15T14:29:25;30.73;;;16.20;;
62693;SDS011;48759;52.544;13.418;2022-11-15T14:31:53;26.30;;;15.53;;
62693;SDS011;48759;52.544;13.418;2022-11-15T14:34:20;20.70;;;15.47;;
62693;SDS011;48759;52.544;13.418;2022-11-15T14:36:47;23.57;;;16.90;;
62693;SDS011;48759;52.544;13.418;2022-11-15T14:39:14;24.10;;;16.90;;
62693;SDS011;48759;52.544;13.418;2022-11-15T14:41:41;24.87;;;17.90;;
62693;SDS011;48759;52.544;13.418;2022-11-15T14:44:09;24.53;;;16.60;;
62693;SDS011;48759;52.544;13.418;2022-11-15T14:46:38;25.53;;;15.90;;
62693;SDS011;48759;52.544;13.418;2022-11-15T14:49:05;27.47;;;15.20;;
62693;SDS011;48759;52.544;13.418;2022-11-15T14:51:32;24.40;;;17.20;;
62693;SDS011;48759;52.544;13.418;2022-11-15T14:53:59;26.37;;;17.40;;
62693;SDS011;48759;52.544;13.418;2022-11-15T14:56:28;26.90;;;17.40;;